createdAt,value
2018-07-05T00:00:53.712Z,53.30
2018-07-05T00:03:26.275Z,53.10
2018-07-05T00:08:25.764Z,53.10
2018-07-05T00:10:58.338Z,53.10
2018-07-05T00:13:30.889Z,53.00
2018-07-05T00:16:03.570Z,53.00
2018-07-05T00:18:36.144Z,52.90
2018-07-05T00:21:08.744Z,52.80
2018-07-05T00:23:41.386Z,52.70
2018-07-05T00:26:14.024Z,52.60
2018-07-05T00:28:46.560Z,52.50
2018-07-05T00:31:19.213Z,52.40
2018-07-05T00:33:51.760Z,52.30
2018-07-05T00:36:24.344Z,52.30
2018-07-05T00:38:57.183Z,52.20
2018-07-05T00:41:29.767Z,52.20
2018-07-05T00:44:02.331Z,52.20
2018-07-05T00:46:35.031Z,52.20
2018-07-05T00:49:07.669Z,52.10
2018-07-05T00:51:40.203Z,52.10
2018-07-05T00:54:12.740Z,52.00
2018-07-05T00:56:45.379Z,52.00
2018-07-05T00:59:17.908Z,52.00
2018-07-05T01:01:50.499Z,52.10
2018-07-05T01:04:23.069Z,52.10
2018-07-05T01:06:55.637Z,52.00
2018-07-05T01:09:28.196Z,52.00
2018-07-05T01:12:00.760Z,52.00
2018-07-05T01:14:33.391Z,52.00
2018-07-05T01:17:06.004Z,52.00
2018-07-05T01:19:38.580Z,52.10
2018-07-05T01:22:11.259Z,52.10
2018-07-05T01:24:43.788Z,52.00
2018-07-05T01:27:16.372Z,51.90
2018-07-05T01:29:48.928Z,51.90
2018-07-05T01:32:21.531Z,51.80
2018-07-05T01:34:54.068Z,51.60
2018-07-05T01:37:26.650Z,51.50
2018-07-05T01:39:59.248Z,51.40
2018-07-05T01:42:31.668Z,51.40
2018-07-05T01:45:04.281Z,51.30
2018-07-05T01:47:36.923Z,51.30
2018-07-05T01:50:09.560Z,51.30
2018-07-05T01:52:42.162Z,51.20
2018-07-05T01:55:14.754Z,51.20
2018-07-05T01:57:47.318Z,51.30
2018-07-05T02:00:19.867Z,51.20
2018-07-05T02:02:53.189Z,51.20
2018-07-05T02:05:25.768Z,51.10
2018-07-05T02:07:58.363Z,51.10
2018-07-05T02:10:30.971Z,51.00
2018-07-05T02:13:03.536Z,50.80
2018-07-05T02:15:36.156Z,50.70
2018-07-05T02:18:08.992Z,50.70
2018-07-05T02:20:41.508Z,50.70
2018-07-05T02:23:14.163Z,50.60
2018-07-05T02:25:46.683Z,50.60
2018-07-05T02:28:19.283Z,50.60
2018-07-05T02:30:52.352Z,50.40
2018-07-05T02:33:24.837Z,50.30
2018-07-05T02:35:58.245Z,50.20
2018-07-05T02:38:30.816Z,50.20
2018-07-05T02:41:04.477Z,50.20
2018-07-05T02:43:37.000Z,50.20
2018-07-05T02:46:09.592Z,50.30
2018-07-05T02:48:42.195Z,50.30
2018-07-05T02:51:14.824Z,50.20
2018-07-05T02:53:47.448Z,50.20
2018-07-05T02:56:20.002Z,50.10
2018-07-05T02:58:52.636Z,50.10
2018-07-05T03:01:25.291Z,50.00
2018-07-05T03:03:57.747Z,49.90
2018-07-05T03:06:30.180Z,49.90
2018-07-05T03:09:03.598Z,49.90
2018-07-05T03:11:36.129Z,49.90
2018-07-05T03:14:08.605Z,49.90
2018-07-05T03:16:41.464Z,49.90
2018-07-05T03:19:13.936Z,49.80
2018-07-05T03:21:46.551Z,49.80
2018-07-05T03:24:19.104Z,49.90
2018-07-05T03:26:51.705Z,49.90
2018-07-05T03:29:24.285Z,49.90
2018-07-05T03:31:56.831Z,49.90
2018-07-05T03:34:29.412Z,49.90
2018-07-05T03:37:02.932Z,49.80
2018-07-05T03:39:35.384Z,49.80
2018-07-05T03:44:34.895Z,49.80
2018-07-05T03:47:07.536Z,49.80
2018-07-05T03:49:40.132Z,49.30
2018-07-05T03:52:12.726Z,49.70
2018-07-05T03:54:45.287Z,49.70
2018-07-05T03:57:17.879Z,49.70
2018-07-05T03:59:50.411Z,49.70
2018-07-05T04:02:22.991Z,49.70
2018-07-05T04:04:55.572Z,49.90
2018-07-05T04:07:28.223Z,50.50
2018-07-05T04:10:00.753Z,49.80
2018-07-05T04:12:33.335Z,49.80
2018-07-05T04:15:05.905Z,49.70
2018-07-05T04:17:38.525Z,49.70
2018-07-05T04:20:11.065Z,49.70
2018-07-05T04:22:43.804Z,49.70
2018-07-05T04:25:16.343Z,49.70
2018-07-05T04:27:48.939Z,49.80
2018-07-05T04:30:21.497Z,49.80
2018-07-05T04:32:54.057Z,49.90
2018-07-05T04:35:26.564Z,49.90
2018-07-05T04:37:59.123Z,49.90
2018-07-05T04:40:31.683Z,49.90
2018-07-05T04:43:04.531Z,49.90
2018-07-05T04:45:36.959Z,49.80
2018-07-05T04:48:09.632Z,49.70
2018-07-05T04:50:42.268Z,49.70
2018-07-05T04:53:14.867Z,49.70
2018-07-05T04:55:47.496Z,49.80
2018-07-05T04:58:20.131Z,49.80
2018-07-05T05:00:52.676Z,49.80
2018-07-05T05:03:25.505Z,49.90
2018-07-05T05:08:24.804Z,49.90
2018-07-05T05:10:57.363Z,49.60
2018-07-05T05:13:30.060Z,49.90
2018-07-05T05:16:02.653Z,49.90
2018-07-05T05:18:35.664Z,49.90
2018-07-05T05:21:08.125Z,50.00
2018-07-05T05:23:40.623Z,50.00
2018-07-05T05:26:13.200Z,49.90
2018-07-05T05:28:45.815Z,49.90
2018-07-05T05:31:18.503Z,50.10
2018-07-05T05:33:51.136Z,49.80
2018-07-05T05:36:24.540Z,50.00
2018-07-05T05:38:57.184Z,50.10
2018-07-05T05:41:29.791Z,50.40
2018-07-05T05:44:02.396Z,50.20
2018-07-05T05:46:35.048Z,50.20
2018-07-05T05:49:07.664Z,50.20
2018-07-05T05:51:40.281Z,50.20
2018-07-05T05:54:12.904Z,50.50
2018-07-05T05:56:46.349Z,51.20
2018-07-05T05:59:18.788Z,51.40
2018-07-05T06:01:51.331Z,52.40
2018-07-05T06:04:23.879Z,52.40
2018-07-05T06:06:56.468Z,52.00
2018-07-05T06:09:29.096Z,51.70
2018-07-05T06:12:01.725Z,51.60
2018-07-05T06:14:34.318Z,51.60
2018-07-05T06:17:06.888Z,51.60
2018-07-05T06:19:39.588Z,51.60
2018-07-05T06:22:12.176Z,51.70
2018-07-05T06:24:44.743Z,51.60
2018-07-05T06:27:17.303Z,51.50
2018-07-05T06:29:49.907Z,51.50
2018-07-05T06:32:22.555Z,51.50
2018-07-05T06:34:55.252Z,51.50
2018-07-05T06:37:27.703Z,51.60
2018-07-05T06:40:00.285Z,51.60
2018-07-05T06:42:32.891Z,51.70
2018-07-05T06:45:05.457Z,51.70
2018-07-05T06:47:38.011Z,51.80
2018-07-05T06:50:10.664Z,51.80
2018-07-05T06:52:43.241Z,52.20
2018-07-05T06:55:15.930Z,52.40
2018-07-05T06:57:48.529Z,52.40
2018-07-05T07:00:21.261Z,52.30
2018-07-05T07:02:53.767Z,52.60
2018-07-05T07:05:27.239Z,52.40
2018-07-05T07:07:59.664Z,52.20
2018-07-05T07:10:32.111Z,52.30
2018-07-05T07:13:04.617Z,52.30
2018-07-05T07:15:37.167Z,52.40
2018-07-05T07:18:09.811Z,52.20
2018-07-05T07:20:42.449Z,52.10
2018-07-05T07:23:15.039Z,52.00
2018-07-05T07:25:47.619Z,52.10
2018-07-05T07:28:20.160Z,52.00
2018-07-05T07:30:52.808Z,52.00
2018-07-05T07:33:25.456Z,51.90
2018-07-05T07:35:58.168Z,52.00
2018-07-05T07:38:30.815Z,51.90
2018-07-05T07:41:03.468Z,51.80
2018-07-05T07:43:29.896Z,51.70
2018-07-05T07:45:56.257Z,51.80
2018-07-05T07:48:22.651Z,51.70
2018-07-05T07:50:49.052Z,51.70
2018-07-05T07:53:15.432Z,51.70
2018-07-05T07:55:41.816Z,51.60
2018-07-05T07:58:08.224Z,51.50
2018-07-05T08:00:34.748Z,51.50
2018-07-05T08:03:01.127Z,51.50
2018-07-05T08:05:27.509Z,51.60
2018-07-05T08:07:53.897Z,51.60
2018-07-05T08:10:20.476Z,51.60
2018-07-05T08:12:46.907Z,51.60
2018-07-05T08:15:13.275Z,51.60
2018-07-05T08:17:39.688Z,51.60
2018-07-05T08:20:06.208Z,51.60
2018-07-05T08:22:32.657Z,51.60
2018-07-05T08:24:59.036Z,51.60
2018-07-05T08:27:25.431Z,51.60
2018-07-05T08:29:51.803Z,51.60
2018-07-05T08:32:18.183Z,51.70
2018-07-05T08:34:44.557Z,51.60
2018-07-05T08:37:10.985Z,51.70
2018-07-05T08:39:37.359Z,51.60
2018-07-05T08:42:03.728Z,51.50
2018-07-05T08:44:30.111Z,51.40
2018-07-05T08:46:56.492Z,51.20
2018-07-05T08:49:22.872Z,51.10
2018-07-05T08:51:49.268Z,51.00
2018-07-05T08:54:15.681Z,50.90
2018-07-05T08:56:42.099Z,50.80
2018-07-05T08:59:08.504Z,50.80
2018-07-05T09:01:34.899Z,50.80
2018-07-05T09:04:01.493Z,50.80
2018-07-05T09:06:27.884Z,50.80
2018-07-05T09:08:54.272Z,50.90
2018-07-05T09:11:20.676Z,51.00
2018-07-05T09:13:47.063Z,51.00
2018-07-05T09:16:13.448Z,50.90
2018-07-05T09:18:39.848Z,50.90
2018-07-05T09:21:06.257Z,50.90
2018-07-05T09:23:32.762Z,50.90
2018-07-05T09:25:59.067Z,50.80
2018-07-05T09:30:58.620Z,50.90
2018-07-05T09:33:25.078Z,50.80
2018-07-05T09:35:51.458Z,50.80
2018-07-05T09:38:17.856Z,50.90
2018-07-05T09:40:44.241Z,50.90
2018-07-05T09:43:10.624Z,50.80
2018-07-05T09:45:37.006Z,50.90
2018-07-05T09:48:03.473Z,50.80
2018-07-05T09:50:29.871Z,50.80
2018-07-05T09:52:56.337Z,50.90
2018-07-05T09:55:22.708Z,51.10
2018-07-05T10:00:15.996Z,51.20
2018-07-05T10:02:42.368Z,50.80
2018-07-05T10:05:08.764Z,51.30
2018-07-05T10:07:35.152Z,51.20
2018-07-05T10:10:02.037Z,51.20
2018-07-05T10:12:28.451Z,51.30
2018-07-05T10:14:54.844Z,51.30
2018-07-05T10:17:21.416Z,51.30
2018-07-05T10:19:48.276Z,51.20
2018-07-05T10:22:14.646Z,51.30
2018-07-05T10:24:41.035Z,51.30
2018-07-05T10:27:07.659Z,51.30
2018-07-05T10:29:40.191Z,51.40
2018-07-05T10:32:12.607Z,51.50
2018-07-05T10:34:39.000Z,51.50
2018-07-05T10:37:05.367Z,51.40
2018-07-05T10:39:31.783Z,51.50
2018-07-05T10:42:04.380Z,51.40
2018-07-05T10:44:37.090Z,51.40
2018-07-05T10:47:09.636Z,51.50
2018-07-05T10:49:42.231Z,51.50
2018-07-05T10:52:14.839Z,51.40
2018-07-05T10:54:47.399Z,52.10
2018-07-05T10:57:19.939Z,51.80
2018-07-05T10:59:52.496Z,51.80
2018-07-05T11:02:25.065Z,51.90
2018-07-05T11:04:57.642Z,52.10
2018-07-05T11:07:30.192Z,52.10
2018-07-05T11:10:03.173Z,52.20
2018-07-05T11:12:35.620Z,52.10
2018-07-05T11:15:09.144Z,52.20
2018-07-05T11:17:41.766Z,52.10
2018-07-05T11:20:14.363Z,52.10
2018-07-05T11:22:46.994Z,52.10
2018-07-05T11:25:19.569Z,52.00
2018-07-05T11:27:52.190Z,52.10
2018-07-05T11:30:24.816Z,52.10
2018-07-05T11:32:57.399Z,52.00
2018-07-05T11:35:29.936Z,51.90
2018-07-05T11:38:02.585Z,51.90
2018-07-05T11:40:35.212Z,51.90
2018-07-05T11:43:07.767Z,51.80
2018-07-05T11:45:40.391Z,51.90
2018-07-05T11:48:13.004Z,52.30
2018-07-05T11:50:45.676Z,52.30
2018-07-05T11:53:18.224Z,52.20
2018-07-05T11:55:50.874Z,52.20
2018-07-05T11:58:23.440Z,52.20
2018-07-05T12:00:56.008Z,52.10
2018-07-05T12:03:28.601Z,52.10
2018-07-05T12:06:01.167Z,51.90
2018-07-05T12:08:33.759Z,51.70
2018-07-05T12:11:06.301Z,51.50
2018-07-05T12:13:38.879Z,51.40
2018-07-05T12:16:11.444Z,51.20
2018-07-05T12:18:43.993Z,51.10
2018-07-05T12:21:16.576Z,50.80
2018-07-05T12:23:49.296Z,50.60
2018-07-05T12:26:21.733Z,50.70
2018-07-05T12:28:54.231Z,50.70
2018-07-05T12:31:26.886Z,51.10
2018-07-05T12:33:59.536Z,51.20
2018-07-05T12:36:32.591Z,51.30
2018-07-05T12:39:05.336Z,51.40
2018-07-05T12:41:37.896Z,51.30
2018-07-05T12:44:10.447Z,51.50
2018-07-05T12:46:43.088Z,51.60
2018-07-05T12:49:15.739Z,52.20
2018-07-05T12:51:48.409Z,51.60
2018-07-05T12:54:20.955Z,51.50
2018-07-05T12:56:53.579Z,51.70
2018-07-05T12:59:26.187Z,51.00
2018-07-05T13:01:58.847Z,50.80
2018-07-05T13:04:31.531Z,50.40
2018-07-05T13:07:04.228Z,50.30
2018-07-05T13:09:36.675Z,50.30
2018-07-05T13:12:09.356Z,50.30
2018-07-05T13:14:41.996Z,50.30
2018-07-05T13:17:14.640Z,49.90
2018-07-05T13:19:47.287Z,50.00
2018-07-05T13:22:19.883Z,49.90
2018-07-05T13:24:52.456Z,49.80
2018-07-05T13:27:25.132Z,49.80
2018-07-05T13:29:57.752Z,49.80
2018-07-05T13:32:30.371Z,50.20
2018-07-05T13:35:02.916Z,49.60
2018-07-05T13:37:35.623Z,49.40
2018-07-05T13:40:08.172Z,49.40
2018-07-05T13:42:40.863Z,49.50
2018-07-05T13:45:13.427Z,49.70
2018-07-05T13:47:46.131Z,49.80
2018-07-05T13:50:18.698Z,49.90
2018-07-05T13:52:51.307Z,49.80
2018-07-05T13:55:23.864Z,49.70
2018-07-05T13:57:56.455Z,49.60
2018-07-05T14:00:28.984Z,49.70
2018-07-05T14:03:01.593Z,49.60
2018-07-05T14:05:34.120Z,49.60
2018-07-05T14:08:06.665Z,49.50
2018-07-05T14:10:39.385Z,49.30
2018-07-05T14:13:12.026Z,49.00
2018-07-05T14:15:44.600Z,48.90
2018-07-05T14:18:17.251Z,48.40
2018-07-05T14:20:49.792Z,48.10
2018-07-05T14:23:22.356Z,47.60
2018-07-05T14:25:54.989Z,47.60
2018-07-05T14:28:27.640Z,47.40
2018-07-05T14:31:00.188Z,47.00
2018-07-05T14:33:32.787Z,47.00
2018-07-05T14:36:05.192Z,46.70
2018-07-05T14:38:37.804Z,46.60
2018-07-05T14:41:10.912Z,46.80
2018-07-05T14:43:43.336Z,46.60
2018-07-05T14:46:16.180Z,46.50
2018-07-05T14:48:52.156Z,46.40
2018-07-05T14:51:24.737Z,46.40
2018-07-05T14:53:57.353Z,46.30
2018-07-05T14:56:29.860Z,46.30
2018-07-05T14:59:02.504Z,46.20
2018-07-05T15:04:02.753Z,46.20
2018-07-05T15:06:35.424Z,46.30
2018-07-05T15:09:07.903Z,46.20
2018-07-05T15:11:40.506Z,46.20
2018-07-05T15:14:13.286Z,46.30
2018-07-05T15:16:45.890Z,46.30
2018-07-05T15:19:18.614Z,46.40
2018-07-05T15:21:51.225Z,46.20
2018-07-05T15:24:24.475Z,46.40
2018-07-05T15:26:57.028Z,46.50
2018-07-05T15:29:29.512Z,46.50
2018-07-05T15:32:02.149Z,46.60
2018-07-05T15:34:34.759Z,46.60
2018-07-05T15:37:07.337Z,46.50
2018-07-05T15:39:39.918Z,46.40
2018-07-05T15:42:12.588Z,46.50
2018-07-05T15:44:45.220Z,46.50
2018-07-05T15:47:17.780Z,46.50
2018-07-05T15:49:50.412Z,46.70
2018-07-05T15:52:23.003Z,46.60
2018-07-05T15:54:56.152Z,46.60
2018-07-05T15:57:28.804Z,46.80
2018-07-05T16:00:01.484Z,46.80
2018-07-05T16:02:34.175Z,46.90
2018-07-05T16:05:06.796Z,46.90
2018-07-05T16:07:39.476Z,46.90
2018-07-05T16:10:12.087Z,47.00
2018-07-05T16:12:44.680Z,47.00
2018-07-05T16:15:17.340Z,46.80
2018-07-05T16:20:16.691Z,46.80
2018-07-05T16:22:49.347Z,46.80
2018-07-05T16:25:22.576Z,46.80
2018-07-05T16:27:55.247Z,46.80
2018-07-05T16:30:27.815Z,46.90
2018-07-05T16:33:00.360Z,46.90
2018-07-05T16:35:32.995Z,47.00
2018-07-05T16:38:05.542Z,47.00
2018-07-05T16:40:38.135Z,46.80
2018-07-05T16:43:10.696Z,46.90
2018-07-05T16:45:43.311Z,47.00
2018-07-05T16:48:15.849Z,47.00
2018-07-05T16:50:48.411Z,46.80
2018-07-05T16:53:20.959Z,46.60
2018-07-05T16:55:53.555Z,46.60
2018-07-05T16:58:26.155Z,46.20
2018-07-05T17:00:58.731Z,46.60
2018-07-05T17:03:32.451Z,46.80
2018-07-05T17:06:05.081Z,46.80
2018-07-05T17:08:37.692Z,46.90
2018-07-05T17:11:10.309Z,47.00
2018-07-05T17:13:43.042Z,47.00
2018-07-05T17:16:15.619Z,47.10
2018-07-05T17:18:48.198Z,47.10
2018-07-05T17:21:20.780Z,47.00
2018-07-05T17:23:53.524Z,46.90
2018-07-05T17:26:26.169Z,46.80
2018-07-05T17:28:58.614Z,46.80
2018-07-05T17:31:31.259Z,46.80
2018-07-05T17:34:04.261Z,46.80
2018-07-05T17:36:36.752Z,46.70
2018-07-05T17:39:09.171Z,46.70
2018-07-05T17:41:42.156Z,46.80
2018-07-05T17:44:14.708Z,46.70
2018-07-05T17:46:47.392Z,46.50
2018-07-05T17:49:20.082Z,46.80
2018-07-05T17:51:52.883Z,46.80
2018-07-05T17:54:25.591Z,46.80
2018-07-05T17:56:58.103Z,46.70
2018-07-05T17:59:30.584Z,46.80
2018-07-05T18:02:03.397Z,46.70
2018-07-05T18:07:03.199Z,46.70
2018-07-05T18:09:35.796Z,46.50
2018-07-05T18:12:08.356Z,46.50
2018-07-05T18:14:40.976Z,46.50
2018-07-05T18:17:13.984Z,46.40
2018-07-05T18:19:46.971Z,46.40
2018-07-05T18:22:19.558Z,46.50
2018-07-05T18:24:52.208Z,46.50
2018-07-05T18:27:24.778Z,46.50
2018-07-05T18:29:58.150Z,46.60
2018-07-05T18:32:30.769Z,46.60
2018-07-05T18:35:03.359Z,46.60
2018-07-05T18:37:35.935Z,46.60
2018-07-05T18:40:08.959Z,46.70
2018-07-05T18:42:42.152Z,46.80
2018-07-05T18:45:15.034Z,46.80
2018-07-05T18:47:47.885Z,47.00
2018-07-05T18:50:21.276Z,46.60
2018-07-05T18:52:53.955Z,46.70
2018-07-05T18:55:26.864Z,46.30
2018-07-05T18:57:59.453Z,46.10
2018-07-05T19:00:32.300Z,45.90
2018-07-05T19:03:04.915Z,46.00
2018-07-05T19:05:37.842Z,46.10
2018-07-05T19:08:10.545Z,45.80
2018-07-05T19:10:43.207Z,45.80
2018-07-05T19:13:15.939Z,45.60
2018-07-05T19:15:48.651Z,45.40
2018-07-05T19:18:21.845Z,45.60
2018-07-05T19:20:54.405Z,45.80
2018-07-05T19:23:27.071Z,45.80
2018-07-05T19:25:59.941Z,45.70
2018-07-05T19:28:32.547Z,45.60
2018-07-05T19:31:05.843Z,45.30
2018-07-05T19:33:38.566Z,45.40
2018-07-05T19:36:11.548Z,45.40
2018-07-05T19:38:44.340Z,45.30
2018-07-05T19:41:17.303Z,45.40
2018-07-05T19:43:49.972Z,45.40
2018-07-05T19:46:22.412Z,45.40
2018-07-05T19:48:55.244Z,45.20
2018-07-05T19:51:28.265Z,45.20
2018-07-05T19:56:28.706Z,45.10
2018-07-05T19:59:01.628Z,44.90
2018-07-05T20:01:34.186Z,45.00
2018-07-05T20:04:06.857Z,45.00
2018-07-05T20:06:39.994Z,45.10
2018-07-05T20:09:12.580Z,44.90
2018-07-05T20:11:50.732Z,45.10
2018-07-05T20:14:23.425Z,45.00
2018-07-05T20:16:56.001Z,45.00
2018-07-05T20:19:29.159Z,45.10
2018-07-05T20:22:01.648Z,45.30
2018-07-05T20:24:34.733Z,45.40
2018-07-05T20:27:07.303Z,45.30
2018-07-05T20:29:40.196Z,45.40
2018-07-05T20:32:13.101Z,45.70
2018-07-05T20:34:45.853Z,45.70
2018-07-05T20:37:18.892Z,45.70
2018-07-05T20:39:51.452Z,45.80
2018-07-05T20:42:24.145Z,45.90
2018-07-05T20:44:56.962Z,46.00
2018-07-05T20:47:29.728Z,46.10
2018-07-05T20:50:02.425Z,46.20
2018-07-05T20:52:35.111Z,46.30
2018-07-05T20:55:07.867Z,46.30
2018-07-05T20:57:40.460Z,46.60
2018-07-05T21:00:13.148Z,46.70
2018-07-05T21:02:45.800Z,46.60
2018-07-05T21:05:18.490Z,46.50
2018-07-05T21:07:51.103Z,46.70
2018-07-05T21:10:23.703Z,46.60
2018-07-05T21:12:56.303Z,46.60
2018-07-05T21:15:29.076Z,46.70
2018-07-05T21:18:01.569Z,46.70
2018-07-05T21:20:34.144Z,46.70
2018-07-05T21:23:06.800Z,46.70
2018-07-05T21:25:39.401Z,46.70
2018-07-05T21:28:11.940Z,46.80
2018-07-05T21:30:44.500Z,46.80
2018-07-05T21:33:17.127Z,46.70
2018-07-05T21:35:49.724Z,46.90
2018-07-05T21:43:02.285Z,46.90
2018-07-05T21:45:34.959Z,47.00
2018-07-05T21:48:07.421Z,47.00
2018-07-05T21:50:40.023Z,47.10
2018-07-05T21:53:12.835Z,47.10
2018-07-05T21:55:45.457Z,47.10
2018-07-05T21:58:18.084Z,47.20
2018-07-05T22:00:50.660Z,47.10
2018-07-05T22:03:23.307Z,47.20
2018-07-05T22:05:55.910Z,47.20
2018-07-05T22:08:28.508Z,47.10
2018-07-05T22:11:01.119Z,47.10
2018-07-05T22:13:33.700Z,47.20
2018-07-05T22:16:06.257Z,47.10
2018-07-05T22:18:44.598Z,47.30
2018-07-05T22:21:18.955Z,47.10
2018-07-05T22:23:57.221Z,47.20
2018-07-05T22:26:30.840Z,47.20
2018-07-05T22:29:09.203Z,47.20
2018-07-05T22:31:41.815Z,47.30
2018-07-05T22:34:14.460Z,47.40
2018-07-05T22:36:46.996Z,47.40
2018-07-05T22:39:19.712Z,47.40
2018-07-05T22:41:52.256Z,47.30
2018-07-05T22:44:24.869Z,47.40
2018-07-05T22:46:57.621Z,47.40
2018-07-05T22:49:30.102Z,47.40
2018-07-05T22:52:02.656Z,47.50
2018-07-05T22:54:35.274Z,47.50
2018-07-05T22:57:07.958Z,47.40
2018-07-05T22:59:40.538Z,47.50
2018-07-05T23:02:13.088Z,47.50
2018-07-05T23:04:45.719Z,47.50
2018-07-05T23:07:18.292Z,47.50
2018-07-05T23:09:50.876Z,47.50
2018-07-05T23:12:23.420Z,47.50
2018-07-05T23:14:55.912Z,47.50
2018-07-05T23:17:28.503Z,47.70
2018-07-05T23:20:01.179Z,47.70
2018-07-05T23:22:33.760Z,47.60
2018-07-05T23:25:06.538Z,47.60
2018-07-05T23:27:39.144Z,47.60
2018-07-05T23:30:11.617Z,47.60
2018-07-05T23:35:11.082Z,47.80
2018-07-05T23:37:43.632Z,48.10
2018-07-05T23:40:16.260Z,47.80
2018-07-05T23:42:48.813Z,47.90
2018-07-05T23:45:21.442Z,47.90
2018-07-05T23:47:54.080Z,47.90
2018-07-05T23:50:26.696Z,47.90
2018-07-05T23:52:59.255Z,47.80
2018-07-05T23:55:31.802Z,47.90
2018-07-05T23:58:04.316Z,47.90
